Time;durP1;ratioP1;P1;durP2;ratioP2;P2;SDS_P1;SDS_P2;PMS_P1;PMS_P2;Temp;Humidity;BMP_temperature;BMP_pressure;BME280_temperature;BME280_humidity;BME280_pressure;Samples;Min_cycle;Max_cycle;Signal;HPM_P1;HPM_P2
2022/10/12 00:01:43;;;;;;;;;9.50;9.50;;;;;10.15;73.23;102550.00;4935237;29;10439;-66
2022/10/12 00:04:09;;;;;;;;;10.75;8.00;;;;;10.15;73.20;102560.78;4935639;29;10648;-68
2022/10/12 00:06:36;;;;;;;;;11.50;10.00;;;;;10.14;72.81;102554.53;4934890;29;10524;-66
2022/10/12 00:09:02;;;;;;;;;8.75;8.00;;;;;10.12;73.26;102548.44;4934437;29;10533;-66
2022/10/12 00:11:29;;;;;;;;;8.75;7.25;;;;;10.11;73.01;102548.63;4934806;29;10409;-66
2022/10/12 00:13:58;;;;;;;;;11.00;9.00;;;;;10.10;73.05;102549.63;4934590;29;10464;-68
2022/10/12 00:16:25;;;;;;;;;6.50;6.50;;;;;10.10;73.40;102560.38;4933729;29;10647;-67
2022/10/12 00:18:54;;;;;;;;;10.00;7.00;;;;;10.10;72.90;102549.63;4935042;29;10440;-67
2022/10/12 00:21:21;;;;;;;;;8.75;8.50;;;;;10.08;73.69;102544.38;4934477;29;10508;-67
2022/10/12 00:23:48;;;;;;;;;9.25;8.50;;;;;10.10;73.03;102541.53;4935238;29;10476;-67
2022/10/12 00:26:20;;;;;;;;;8.00;8.00;;;;;10.09;73.31;102535.31;4935287;29;10329;-67
2022/10/12 00:28:47;;;;;;;;;9.50;8.50;;;;;10.09;73.07;102540.69;4933398;28;11063;-69
2022/10/12 00:31:17;;;;;;;;;6.00;6.00;;;;;10.08;73.56;102544.38;4934025;29;10606;-66
2022/10/12 00:33:45;;;;;;;;;6.25;6.25;;;;;10.08;73.45;102538.97;4933858;29;10588;-70
2022/10/12 00:36:18;;;;;;;;;9.25;5.00;;;;;10.08;73.21;102543.53;4934915;29;11188;-68
2022/10/12 00:38:44;;;;;;;;;9.25;7.50;;;;;10.04;73.34;102547.50;4935100;29;10424;-69
2022/10/12 00:41:13;;;;;;;;;7.00;6.50;;;;;10.04;73.59;102547.50;4934664;29;10427;-69
2022/10/12 00:43:41;;;;;;;;;6.25;6.25;;;;;10.02;73.48;102536.06;4934146;29;10311;-68
2022/10/12 00:46:29;;;;;;;;;8.75;6.00;;;;;9.98;72.96;102545.44;4934841;29;10482;-69
2022/10/12 00:49:15;;;;;;;;;8.00;8.00;;;;;9.96;73.07;102542.03;4933858;29;10517;-67
2022/10/12 00:51:45;;;;;;;;;12.00;9.00;;;;;9.94;72.93;102544.03;4933088;29;10478;-67
2022/10/12 00:54:18;;;;;;;;;10.00;8.00;;;;;9.92;73.58;102533.41;4934272;29;10625;-69
2022/10/12 00:56:46;;;;;;;;;6.50;5.50;;;;;9.89;73.31;102539.09;4934187;29;11255;-66
2022/10/12 00:59:20;;;;;;;;;7.00;5.00;;;;;9.90;73.72;102538.94;4933870;29;10519;-67
2022/10/12 01:01:46;;;;;;;;;6.00;5.00;;;;;9.88;73.29;102532.88;4934382;29;10302;-67
2022/10/12 01:04:13;;;;;;;;;5.75;5.00;;;;;9.87;73.61;102536.53;4934371;29;10340;-67
2022/10/12 01:06:39;;;;;;;;;5.75;5.75;;;;;9.87;72.96;102530.31;4934472;29;10413;-68
2022/10/12 01:09:06;;;;;;;;;9.00;6.00;;;;;9.87;73.31;102541.06;4932879;28;10363;-70
2022/10/12 01:11:32;;;;;;;;;9.25;6.50;;;;;9.85;73.48;102527.78;4933718;29;10456;-66
2022/10/12 01:13:59;;;;;;;;;10.25;6.25;;;;;9.85;73.01;102527.78;4933992;29;10482;-68
2022/10/12 01:16:39;;;;;;;;;10.50;9.00;;;;;9.86;73.56;102528.63;4933218;29;10534;-67
2022/10/12 01:19:27;;;;;;;;;5.50;5.50;;;;;9.85;73.47;102537.69;4933417;29;10541;-66
2022/10/12 01:22:01;;;;;;;;;5.00;5.00;;;;;9.84;73.03;102525.22;4914921;29;10627;-67
2022/10/12 01:24:54;;;;;;;;;11.50;8.75;;;;;9.82;72.90;102532.63;4921652;29;10531;-67
2022/10/12 01:27:28;;;;;;;;;5.75;5.75;;;;;9.82;73.56;102529.91;4933908;29;10600;-68
2022/10/12 01:30:25;;;;;;;;;6.00;6.00;;;;;9.79;73.20;102516.75;4932772;29;10642;-67
2022/10/12 01:33:04;;;;;;;;;8.75;8.50;;;;;9.76;73.02;102517.06;4910534;29;10536;-68
2022/10/12 01:35:57;;;;;;;;;7.75;7.75;;;;;9.74;73.23;102519.91;4926880;29;10436;-67
2022/10/12 01:38:33;;;;;;;;;7.00;7.00;;;;;9.72;73.13;102515.66;4933350;29;10346;-68
2022/10/12 01:41:30;;;;;;;;;4.25;4.25;;;;;9.70;73.48;102518.50;4932460;29;10490;-67
2022/10/12 01:43:57;;;;;;;;;4.50;4.50;;;;;9.67;73.17;102521.47;4933599;29;10443;-68
2022/10/12 01:46:23;;;;;;;;;8.50;8.50;;;;;9.67;73.08;102516.09;4932903;29;10522;-67
2022/10/12 01:48:54;;;;;;;;;8.00;5.75;;;;;9.65;73.11;102510.88;4932935;29;10437;-69
2022/10/12 01:51:27;;;;;;;;;8.00;4.75;;;;;9.64;73.38;102509.19;4932896;29;10430;-68
2022/10/12 01:54:08;;;;;;;;;5.75;5.50;;;;;9.61;73.28;102514.84;4933208;29;10567;-66
2022/10/12 01:56:47;;;;;;;;;6.75;6.75;;;;;9.62;73.15;102507.63;4914669;29;10515;-68
2022/10/12 01:59:25;;;;;;;;;6.00;6.00;;;;;9.59;73.04;102511.44;4925252;29;10549;-67
2022/10/12 02:02:26;;;;;;;;;8.00;5.00;;;;;9.59;72.94;102507.91;4932979;29;10431;-67
2022/10/12 02:05:01;;;;;;;;;7.50;7.00;;;;;9.57;72.93;102499.16;4932473;29;10340;-69
2022/10/12 02:07:40;;;;;;;;;5.00;5.00;;;;;9.53;72.84;102503.16;4932747;28;10508;-66
2022/10/12 02:10:14;;;;;;;;;7.75;6.00;;;;;9.51;73.05;102497.91;4931515;29;10399;-68
2022/10/12 02:12:42;;;;;;;;;6.50;5.00;;;;;9.48;72.96;102495.53;4933487;29;10344;-66
2022/10/12 02:15:11;;;;;;;;;6.25;6.25;;;;;9.48;73.15;102491.97;4928681;29;10569;-66
2022/10/12 02:17:42;;;;;;;;;9.50;6.50;;;;;9.45;73.08;102493.13;4914968;29;10382;-68
2022/10/12 02:20:13;;;;;;;;;9.00;6.50;;;;;9.43;72.87;102492.41;4932100;29;10449;-66
2022/10/12 02:22:42;;;;;;;;;14.50;8.00;;;;;9.40;72.85;102485.50;4932462;29;10498;-67
2022/10/12 02:25:13;;;;;;;;;6.00;6.00;;;;;9.38;72.78;102486.63;4933000;29;10657;-66
2022/10/12 02:27:44;;;;;;;;;8.50;5.00;;;;;9.38;73.31;102490.16;4932807;29;10496;-66
2022/10/12 02:30:11;;;;;;;;;5.00;5.00;;;;;9.38;73.01;102482.09;4932798;29;10474;-66
2022/10/12 02:33:00;;;;;;;;;8.00;6.00;;;;;9.39;72.93;102483.78;4933180;29;10395;-66
2022/10/12 02:35:41;;;;;;;;;5.75;5.75;;;;;9.38;73.03;102475.88;4933119;29;10515;-66
2022/10/12 02:38:17;;;;;;;;;9.00;6.25;;;;;9.36;72.98;102473.34;4932287;29;10457;-65
2022/10/12 02:40:53;;;;;;;;;8.00;7.50;;;;;9.36;72.83;102467.97;4931510;29;10578;-66
2022/10/12 02:43:26;;;;;;;;;5.50;5.50;;;;;9.34;73.37;102461.03;4932883;29;10495;-66
2022/10/12 02:45:55;;;;;;;;;5.75;5.25;;;;;9.33;73.13;102462.88;4932983;29;10338;-67
2022/10/12 02:48:23;;;;;;;;;7.25;6.50;;;;;9.34;72.84;102466.41;4932640;29;10424;-67
2022/10/12 02:50:53;;;;;;;;;6.25;4.50;;;;;9.33;72.83;102462.03;4931595;29;10279;-67
2022/10/12 02:53:21;;;;;;;;;8.75;5.00;;;;;9.30;72.83;102459.63;4932799;29;11097;-68
2022/10/12 02:55:50;;;;;;;;;6.00;6.00;;;;;9.32;72.97;102463.88;4933118;29;10507;-69
2022/10/12 02:58:17;;;;;;;;;5.00;5.00;;;;;9.31;73.06;102454.09;4932359;29;10490;-69
2022/10/12 03:00:43;;;;;;;;;6.00;6.00;;;;;9.28;72.70;102454.41;4931696;29;10594;-67
2022/10/12 03:03:10;;;;;;;;;11.00;8.00;;;;;9.28;72.79;102454.41;4932643;29;11229;-68
2022/10/12 03:05:36;;;;;;;;;7.00;5.00;;;;;9.26;72.86;102458.22;4932306;29;10551;-68
2022/10/12 03:08:03;;;;;;;;;6.50;6.50;;;;;9.22;73.06;102455.00;4931779;29;10701;-67
2022/10/12 03:10:29;;;;;;;;;5.00;5.00;;;;;9.19;73.02;102447.22;4932089;29;10614;-67
2022/10/12 03:12:56;;;;;;;;;5.00;5.00;;;;;9.18;72.90;102452.75;4931825;29;11502;-66
2022/10/12 03:15:22;;;;;;;;;7.50;7.50;;;;;9.16;72.80;102452.91;4932441;29;10590;-67
2022/10/12 03:17:49;;;;;;;;;8.00;8.00;;;;;9.12;72.86;102452.34;4932471;29;10614;-67
2022/10/12 03:20:15;;;;;;;;;9.75;8.75;;;;;9.10;72.71;102456.16;4932025;29;10596;-67
2022/10/12 03:22:42;;;;;;;;;7.50;7.25;;;;;9.06;72.87;102444.84;4931651;29;10643;-67
2022/10/12 03:25:08;;;;;;;;;8.00;8.00;;;;;9.07;72.59;102443.00;4932595;29;10646;-67
2022/10/12 03:27:35;;;;;;;;;10.00;8.25;;;;;9.05;72.74;102451.22;4931454;29;10634;-67
2022/10/12 03:30:01;;;;;;;;;8.00;8.00;;;;;9.04;72.46;102446.84;4932074;29;10697;-67
2022/10/12 03:32:28;;;;;;;;;10.50;10.50;;;;;9.03;72.22;102442.44;4932195;29;10818;-66
2022/10/12 03:34:54;;;;;;;;;12.75;9.00;;;;;9.00;72.52;102448.13;4931668;29;10775;-67
2022/10/12 03:37:21;;;;;;;;;12.00;8.25;;;;;8.99;73.16;102446.41;4924293;29;10721;-66
2022/10/12 03:39:47;;;;;;;;;7.25;5.75;;;;;8.96;73.05;102454.78;4931892;29;10689;-67
2022/10/12 03:42:14;;;;;;;;;8.75;8.50;;;;;8.92;72.74;102456.06;4935666;29;10592;-66
2022/10/12 03:44:41;;;;;;;;;8.75;8.75;;;;;8.91;73.24;102444.47;4935811;29;10574;-66
2022/10/12 03:47:07;;;;;;;;;8.00;8.00;;;;;8.90;73.10;102447.28;4934437;29;10765;-66
2022/10/12 03:49:34;;;;;;;;;10.50;8.50;;;;;8.89;73.14;102448.28;4934542;29;10688;-67
2022/10/12 03:52:01;;;;;;;;;10.00;8.50;;;;;8.89;72.87;102446.44;4936895;29;10739;-66
2022/10/12 03:54:27;;;;;;;;;8.50;7.00;;;;;8.89;72.48;102448.28;4935514;29;10785;-66
2022/10/12 03:56:54;;;;;;;;;8.50;7.50;;;;;8.88;73.02;102442.06;4935565;29;10579;-67
2022/10/12 03:59:20;;;;;;;;;8.25;5.75;;;;;8.88;73.33;102443.91;4935032;29;10842;-67
2022/10/12 04:01:46;;;;;;;;;7.50;7.50;;;;;8.85;72.58;102442.34;4933252;28;10572;-67
2022/10/12 04:04:13;;;;;;;;;9.25;7.75;;;;;8.84;72.68;102446.03;4935584;28;10598;-67
2022/10/12 04:06:39;;;;;;;;;10.50;9.00;;;;;8.82;72.72;102448.00;4934557;29;11456;-67
2022/10/12 04:09:06;;;;;;;;;9.00;9.00;;;;;8.81;72.89;102450.84;4934930;29;10674;-67
2022/10/12 04:11:32;;;;;;;;;10.50;8.75;;;;;8.81;73.23;102450.84;4935062;29;10639;-68
2022/10/12 04:13:58;;;;;;;;;5.75;5.75;;;;;8.80;73.43;102449.16;4935083;29;10721;-67
2022/10/12 04:16:25;;;;;;;;;9.25;8.25;;;;;8.81;73.13;102450.84;4934996;29;10631;-68
2022/10/12 04:18:56;;;;;;;;;9.75;9.75;;;;;8.79;73.36;102442.94;4934592;29;10640;-69
2022/10/12 04:21:23;;;;;;;;;12.50;10.00;;;;;8.78;73.38;102441.22;4934570;29;10730;-67
2022/10/12 04:23:50;;;;;;;;;9.50;9.50;;;;;8.77;73.22;102442.22;4935258;29;11778;-67
2022/10/12 04:26:16;;;;;;;;;9.25;9.25;;;;;8.76;72.75;102439.69;4934957;29;10657;-68
2022/10/12 04:28:43;;;;;;;;;9.50;8.25;;;;;8.75;72.74;102446.91;4934806;29;10650;-67
2022/10/12 04:31:09;;;;;;;;;8.25;7.50;;;;;8.74;73.07;102444.34;4934710;29;10716;-68
2022/10/12 04:33:36;;;;;;;;;7.50;7.50;;;;;8.73;72.79;102442.66;4934315;28;10607;-67
2022/10/12 04:36:02;;;;;;;;;9.00;9.00;;;;;8.71;73.07;102439.25;4934127;29;10712;-67
2022/10/12 04:38:29;;;;;;;;;8.25;8.25;;;;;8.72;73.13;102435.59;4934409;29;10972;-67
2022/10/12 04:40:56;;;;;;;;;7.50;5.25;;;;;8.71;73.20;102434.75;4934468;29;10743;-68
2022/10/12 04:43:22;;;;;;;;;12.00;9.00;;;;;8.71;73.25;102437.44;4934663;29;10893;-68
2022/10/12 04:45:56;;;;;;;;;9.00;9.00;;;;;8.70;72.93;102438.41;4934699;29;10793;-66
2022/10/12 04:48:23;;;;;;;;;9.50;8.25;;;;;8.68;73.25;102435.03;4934046;28;10731;-67
2022/10/12 04:50:50;;;;;;;;;9.75;9.75;;;;;8.68;73.04;102432.34;4933817;29;10806;-67
2022/10/12 04:53:17;;;;;;;;;10.25;10.25;;;;;8.68;73.14;102435.03;4934606;29;10672;-67
2022/10/12 04:55:44;;;;;;;;;9.50;8.50;;;;;8.66;72.88;102431.63;4933725;29;10903;-66
2022/10/12 04:58:10;;;;;;;;;10.00;9.75;;;;;8.66;72.91;102443.22;4933290;29;10861;-67
2022/10/12 05:00:36;;;;;;;;;11.50;11.50;;;;;8.64;72.99;102439.00;4934485;29;10577;-69
2022/10/12 05:03:04;;;;;;;;;12.00;7.00;;;;;8.64;73.48;102439.00;4933291;28;10751;-69
2022/10/12 05:05:33;;;;;;;;;9.00;8.00;;;;;8.64;73.14;102430.94;4932964;29;11440;-69
2022/10/12 05:07:59;;;;;;;;;9.75;9.75;;;;;8.65;72.93;102430.78;4934241;29;10709;-66
2022/10/12 05:10:25;;;;;;;;;11.50;10.50;;;;;8.66;73.06;102428.94;4933906;29;10837;-69
2022/10/12 05:12:52;;;;;;;;;10.50;7.75;;;;;8.64;73.07;102434.47;4932442;28;10714;-69
2022/10/12 05:15:18;;;;;;;;;11.75;11.25;;;;;8.63;73.66;102424.72;4934023;29;10853;-69
2022/10/12 05:17:45;;;;;;;;;12.00;8.75;;;;;8.63;73.02;102426.56;4932198;28;11608;-69
2022/10/12 05:20:12;;;;;;;;;11.00;11.00;;;;;8.61;73.14;102418.63;4933547;29;10841;-69
2022/10/12 05:22:39;;;;;;;;;10.75;10.50;;;;;8.63;73.13;102415.81;4933813;29;10868;-68
2022/10/12 05:25:06;;;;;;;;;12.00;11.50;;;;;8.62;73.76;102414.09;4934055;29;10907;-69
2022/10/12 05:27:33;;;;;;;;;7.50;7.50;;;;;8.61;73.27;102415.94;4933833;29;10898;-69
2022/10/12 05:29:59;;;;;;;;;8.25;8.25;;;;;8.61;73.12;102407.06;4933771;29;10753;-68
2022/10/12 05:32:26;;;;;;;;;11.75;10.00;;;;;8.60;73.05;102416.94;4932744;28;11682;-69
2022/10/12 05:34:53;;;;;;;;;13.50;11.25;;;;;8.59;72.91;102415.25;4933715;29;10917;-68
2022/10/12 05:37:20;;;;;;;;;8.25;7.50;;;;;8.58;72.97;102415.38;4933945;29;11124;-67
2022/10/12 05:39:48;;;;;;;;;11.00;11.00;;;;;8.58;73.45;102410.84;4933202;29;10774;-68
2022/10/12 05:42:15;;;;;;;;;12.75;9.75;;;;;8.58;72.82;102410.00;4933310;29;10843;-68
2022/10/12 05:44:41;;;;;;;;;11.00;11.00;;;;;8.56;73.50;102409.31;4933279;29;10814;-69
2022/10/12 05:47:08;;;;;;;;;13.00;12.75;;;;;8.55;72.85;102411.16;4948018;28;11002;-68
2022/10/12 05:49:34;;;;;;;;;14.75;11.50;;;;;8.55;73.16;102418.38;4932763;29;10931;-69
2022/10/12 05:52:00;;;;;;;;;8.75;7.75;;;;;8.55;73.99;102410.31;4928796;28;11028;-67
2022/10/12 05:54:27;;;;;;;;;13.00;13.00;;;;;8.55;73.45;102413.84;4931720;29;10841;-69
2022/10/12 05:56:53;;;;;;;;;12.00;11.25;;;;;8.53;73.36;102418.50;4931865;29;10951;-69
2022/10/12 05:59:20;;;;;;;;;12.75;11.50;;;;;8.53;73.22;102415.81;4932749;29;10898;-68
2022/10/12 06:01:46;;;;;;;;;15.75;15.25;;;;;8.52;73.62;102421.34;4933103;29;10953;-69
2022/10/12 06:04:13;;;;;;;;;14.00;12.50;;;;;8.51;73.67;102408.91;4925265;29;11090;-69
2022/10/12 06:06:39;;;;;;;;;15.25;12.75;;;;;8.50;73.59;102412.56;4942286;29;10928;-69
2022/10/12 06:09:06;;;;;;;;;9.00;9.00;;;;;8.50;73.66;102409.88;4933085;29;11167;-69
2022/10/12 06:11:33;;;;;;;;;12.50;10.25;;;;;8.47;73.35;102412.84;4932842;29;10974;-69
2022/10/12 06:14:02;;;;;;;;;12.50;11.00;;;;;8.47;73.45;102416.41;4933319;29;10982;-69
2022/10/12 06:16:28;;;;;;;;;12.50;11.50;;;;;8.46;73.98;102409.31;4933123;29;10990;-69
2022/10/12 06:18:55;;;;;;;;;11.00;10.75;;;;;8.46;73.44;102409.31;4932948;29;10912;-69
2022/10/12 06:21:21;;;;;;;;;16.75;15.00;;;;;8.47;73.71;102408.34;4947503;29;10926;-69
2022/10/12 06:24:03;;;;;;;;;15.75;14.50;;;;;8.46;73.73;102408.47;4933377;29;12000;-70
2022/10/12 06:26:29;;;;;;;;;13.75;13.75;;;;;8.48;74.14;102419.94;4933025;29;10994;-69
2022/10/12 06:28:56;;;;;;;;;14.25;14.25;;;;;8.48;73.45;102415.41;4932670;29;10933;-69
2022/10/12 06:31:22;;;;;;;;;12.00;11.75;;;;;8.49;73.25;102413.56;4932566;29;10983;-69
2022/10/12 06:33:49;;;;;;;;;14.75;14.25;;;;;8.50;73.42;102416.09;4932991;29;11127;-69
2022/10/12 06:36:16;;;;;;;;;15.25;13.00;;;;;8.51;73.68;102411.59;4933230;29;11160;-69
2022/10/12 06:38:42;;;;;;;;;15.50;15.00;;;;;8.53;73.54;102417.66;4932994;29;11069;-66
2022/10/12 06:41:09;;;;;;;;;12.25;12.25;;;;;8.52;73.49;102408.75;4932547;29;11176;-67
2022/10/12 06:43:35;;;;;;;;;13.00;12.25;;;;;8.56;73.58;102414.69;4932774;29;10872;-67
2022/10/12 06:46:02;;;;;;;;;15.00;12.75;;;;;8.57;73.96;102405.66;4932676;29;10998;-68
2022/10/12 06:48:29;;;;;;;;;12.50;12.50;;;;;8.58;73.24;102408.19;4932796;29;11004;-67
2022/10/12 06:50:55;;;;;;;;;14.50;13.00;;;;;8.59;73.78;102406.38;4932579;29;11654;-66
2022/10/12 06:53:22;;;;;;;;;14.50;13.25;;;;;8.62;73.64;102412.28;4932613;29;11082;-66
2022/10/12 06:55:48;;;;;;;;;15.75;15.25;;;;;8.65;73.95;102403.94;4932550;29;11095;-67
2022/10/12 06:58:14;;;;;;;;;17.75;13.75;;;;;8.69;73.52;102403.66;4932987;29;10931;-66
2022/10/12 07:00:41;;;;;;;;;13.00;12.75;;;;;8.73;73.97;102399.69;4932224;29;10849;-66
2022/10/12 07:03:12;;;;;;;;;11.00;11.00;;;;;8.78;73.94;102398.25;4932680;29;11556;-66
2022/10/12 07:05:38;;;;;;;;;13.75;13.75;;;;;8.84;74.08;102396.84;4932829;29;10923;-67
2022/10/12 07:08:05;;;;;;;;;14.75;14.25;;;;;8.90;73.72;102397.09;4932353;29;10878;-67
2022/10/12 07:10:31;;;;;;;;;14.00;13.00;;;;;8.96;74.06;102395.69;4932672;29;10733;-66
2022/10/12 07:12:57;;;;;;;;;13.75;12.00;;;;;8.99;74.02;102387.31;4932653;29;10849;-66
2022/10/12 07:15:24;;;;;;;;;12.25;11.75;;;;;9.04;73.59;102393.13;4933929;29;10755;-66
2022/10/12 07:17:50;;;;;;;;;11.50;11.50;;;;;9.08;73.88;102393.69;4935992;29;10667;-65
2022/10/12 07:20:16;;;;;;;;;17.25;13.00;;;;;9.09;73.43;102393.53;4935921;29;10998;-66
2022/10/12 07:22:43;;;;;;;;;13.00;12.00;;;;;9.16;73.89;102393.78;4936204;29;10773;-66
2022/10/12 07:25:09;;;;;;;;;13.25;12.50;;;;;9.18;73.73;102389.09;4936335;29;10773;-65
2022/10/12 07:27:36;;;;;;;;;12.25;12.25;;;;;9.23;73.98;102394.88;4936123;29;10863;-66
2022/10/12 07:30:03;;;;;;;;;16.00;13.50;;;;;9.25;74.07;102392.91;4936746;29;10703;-65
2022/10/12 07:32:30;;;;;;;;;13.00;13.00;;;;;9.28;73.92;102399.84;4936415;29;10982;-66
2022/10/12 07:34:56;;;;;;;;;17.25;15.00;;;;;9.30;73.52;102401.38;4936290;29;10753;-66
2022/10/12 07:37:22;;;;;;;;;6.25;5.75;;;;;9.34;73.57;102399.22;4936493;29;10844;-66
2022/10/12 07:39:49;;;;;;;;;11.50;11.50;;;;;9.37;73.91;102397.09;4936153;29;10550;-65
2022/10/12 07:42:15;;;;;;;;;12.50;11.00;;;;;9.41;74.18;102390.44;4935780;29;11464;-67
2022/10/12 07:44:45;;;;;;;;;12.25;10.00;;;;;9.46;73.90;102395.34;4936488;29;10650;-66
2022/10/12 07:47:11;;;;;;;;;11.50;11.00;;;;;9.51;73.56;102395.75;4936227;29;10734;-66
2022/10/12 07:49:37;;;;;;;;;10.00;7.50;;;;;9.54;74.15;102405.38;4935593;29;10769;-66
2022/10/12 07:52:04;;;;;;;;;10.00;9.00;;;;;9.55;73.66;102401.66;4936202;29;10669;-67
2022/10/12 07:54:31;;;;;;;;;15.00;13.50;;;;;9.56;73.45;102401.53;4935469;29;10541;-67
2022/10/12 07:56:58;;;;;;;;;15.75;10.50;;;;;9.59;73.80;102405.75;4935469;29;10806;-65
2022/10/12 07:59:24;;;;;;;;;8.75;8.75;;;;;9.62;74.06;102411.69;4935306;29;10558;-67
2022/10/12 08:01:50;;;;;;;;;15.25;12.50;;;;;9.64;73.67;102407.03;4935234;29;10493;-69
2022/10/12 08:04:17;;;;;;;;;8.75;7.75;;;;;9.70;74.32;102408.25;4935355;29;11356;-66
2022/10/12 08:06:43;;;;;;;;;9.25;9.25;;;;;9.75;74.09;102410.50;4935353;29;10581;-67
2022/10/12 08:09:10;;;;;;;;;12.75;11.25;;;;;9.80;73.97;102410.88;4935508;29;10428;-67
2022/10/12 08:11:38;;;;;;;;;9.50;8.25;;;;;9.85;73.59;102416.66;4934957;29;10423;-67
2022/10/12 08:14:05;;;;;;;;;13.00;12.00;;;;;9.93;73.86;102418.59;4935257;29;10543;-67
2022/10/12 08:16:32;;;;;;;;;9.00;9.00;;;;;9.98;73.02;102419.84;4935124;29;10379;-66
2022/10/12 08:18:59;;;;;;;;;10.00;10.00;;;;;10.04;73.11;102421.91;4935117;29;10303;-66
2022/10/12 08:21:26;;;;;;;;;9.75;9.75;;;;;10.08;73.15;102417.91;4934979;29;10372;-66
2022/10/12 08:23:52;;;;;;;;;11.75;9.75;;;;;10.13;72.89;102420.16;4934639;29;10577;-65
2022/10/12 08:26:19;;;;;;;;;8.25;7.00;;;;;10.19;72.30;102416.84;4934657;29;10432;-68
2022/10/12 08:28:45;;;;;;;;;9.50;9.00;;;;;10.27;72.40;102416.97;4934997;29;10350;-67
2022/10/12 08:31:14;;;;;;;;;13.50;11.00;;;;;10.34;71.84;102409.13;4934717;29;10316;-67
2022/10/12 08:33:40;;;;;;;;;13.00;10.00;;;;;10.40;71.79;102403.09;4934986;29;10417;-67
2022/10/12 08:36:08;;;;;;;;;6.75;6.75;;;;;10.39;71.67;102399.56;4934880;29;10409;-68
2022/10/12 08:38:38;;;;;;;;;8.75;7.00;;;;;10.45;71.49;102402.63;4934810;29;10391;-66
2022/10/12 08:41:18;;;;;;;;;8.25;5.50;;;;;10.53;71.02;102408.09;4934543;29;10114;-67
2022/10/12 08:44:06;;;;;;;;;9.75;8.25;;;;;10.58;71.17;102411.19;4936014;29;10196;-67
2022/10/12 08:46:33;;;;;;;;;10.50;10.50;;;;;10.61;71.37;102416.25;4935433;29;10912;-66
2022/10/12 08:49:13;;;;;;;;;5.00;5.00;;;;;10.72;71.40;102423.25;4934744;29;10233;-66
2022/10/12 08:51:52;;;;;;;;;8.50;7.50;;;;;10.75;70.63;102421.09;4934575;29;10190;-67
2022/10/12 08:54:24;;;;;;;;;2.00;2.00;;;;;10.77;70.87;102419.06;4934760;29;10111;-66
2022/10/12 08:56:54;;;;;;;;;8.25;8.00;;;;;10.81;70.75;102423.13;4933747;29;10175;-67
2022/10/12 08:59:21;;;;;;;;;7.50;7.50;;;;;10.86;70.41;102420.00;4934350;29;10125;-69
2022/10/12 09:02:12;;;;;;;;;7.25;7.25;;;;;10.90;70.43;102410.59;4934541;29;10796;-66
2022/10/12 09:05:00;;;;;;;;;13.00;9.00;;;;;10.94;70.09;102409.28;4934927;29;10099;-66
2022/10/12 09:07:32;;;;;;;;;8.75;8.50;;;;;10.98;70.05;102407.94;4934307;29;10134;-67
2022/10/12 09:10:11;;;;;;;;;7.00;7.00;;;;;11.05;69.69;102400.06;4933982;29;10173;-66
2022/10/12 09:13:03;;;;;;;;;8.75;6.50;;;;;11.11;68.99;102400.28;4934776;29;10826;-66
2022/10/12 09:15:34;;;;;;;;;7.25;6.50;;;;;11.18;68.59;102396.94;4934544;29;10132;-66
2022/10/12 09:18:04;;;;;;;;;6.75;5.50;;;;;11.22;68.86;102401.88;4934945;29;10031;-67
2022/10/12 09:20:38;;;;;;;;;5.50;4.00;;;;;11.30;69.05;102401.03;4934617;29;9956;-66
2022/10/12 09:23:22;;;;;;;;;5.50;5.00;;;;;11.38;68.37;102401.94;4935269;29;10659;-66
2022/10/12 09:25:49;;;;;;;;;7.25;6.00;;;;;11.43;68.54;102404.16;4934654;29;10686;-67
2022/10/12 09:28:25;;;;;;;;;6.50;5.75;;;;;11.47;68.22;102408.22;4934246;29;9883;-66
2022/10/12 09:31:04;;;;;;;;;6.75;6.00;;;;;11.48;67.98;102399.13;4933863;29;9890;-66
2022/10/12 09:33:58;;;;;;;;;5.50;5.50;;;;;11.49;68.03;102400.78;4934204;29;9920;-68
2022/10/12 09:36:32;;;;;;;;;6.00;6.00;;;;;11.55;67.81;102402.00;4933314;29;10714;-68
2022/10/12 09:39:03;;;;;;;;;8.50;8.50;;;;;11.58;67.59;102399.81;4933031;29;9964;-67
2022/10/12 09:41:38;;;;;;;;;6.25;5.00;;;;;11.63;67.33;102408.28;4933507;29;10084;-69
2022/10/12 09:44:05;;;;;;;;;6.25;5.75;;;;;11.66;67.37;102401.69;4933748;29;9783;-69
2022/10/12 09:46:44;;;;;;;;;5.75;5.75;;;;;11.71;67.01;102406.59;4933748;29;9874;-70
2022/10/12 09:49:10;;;;;;;;;14.00;9.25;;;;;11.71;67.08;102396.69;4933521;29;9903;-67
2022/10/12 09:51:37;;;;;;;;;8.50;7.25;;;;;11.75;67.07;102386.38;4933138;29;10089;-69
2022/10/12 09:54:04;;;;;;;;;6.50;6.50;;;;;11.79;66.82;102379.69;4933784;29;9778;-67
2022/10/12 09:56:45;;;;;;;;;9.00;8.75;;;;;11.82;66.59;102384.72;4934172;29;9902;-66
2022/10/12 09:59:36;;;;;;;;;7.50;7.00;;;;;11.83;66.81;102389.16;4933539;29;9980;-67
2022/10/12 10:02:08;;;;;;;;;7.00;6.75;;;;;11.82;66.41;102385.56;4933305;29;9736;-69
2022/10/12 10:04:36;;;;;;;;;9.25;9.25;;;;;11.82;66.26;102385.56;4933304;29;9808;-69
2022/10/12 10:07:32;;;;;;;;;10.50;7.50;;;;;11.88;65.93;102386.81;4933135;29;9954;-68
2022/10/12 10:10:09;;;;;;;;;9.00;8.50;;;;;11.96;65.34;102392.22;4932836;29;10031;-68
2022/10/12 10:12:48;;;;;;;;;5.75;5.25;;;;;12.00;65.28;102384.66;4932989;29;9925;-68
2022/10/12 10:15:21;;;;;;;;;8.50;7.00;;;;;12.05;65.18;102379.59;4933275;29;9757;-68
2022/10/12 10:17:54;;;;;;;;;8.25;6.25;;;;;12.10;64.53;102378.06;4933571;29;9926;-69
2022/10/12 10:20:29;;;;;;;;;8.00;8.00;;;;;12.15;64.51;102371.31;4932868;29;9768;-70
2022/10/12 10:22:56;;;;;;;;;8.00;6.25;;;;;12.14;64.20;102365.06;4933075;29;9968;-67
2022/10/12 10:25:23;;;;;;;;;6.50;5.75;;;;;12.16;64.30;102365.78;4933293;29;9883;-70
2022/10/12 10:28:10;;;;;;;;;9.00;8.50;;;;;12.14;63.78;102365.06;4932611;29;9619;-68
2022/10/12 10:30:36;;;;;;;;;10.50;10.00;;;;;12.09;63.59;102359.34;4932619;29;9919;-69
2022/10/12 10:33:16;;;;;;;;;8.00;8.00;;;;;12.12;63.63;102356.31;4932488;29;10064;-70
2022/10/12 10:36:11;;;;;;;;;9.50;9.50;;;;;12.14;63.31;102348.88;4933014;29;9929;-69
2022/10/12 10:38:51;;;;;;;;;12.25;10.50;;;;;12.17;63.06;102351.25;4932518;29;10501;-69
2022/10/12 10:41:18;;;;;;;;;8.50;8.50;;;;;12.21;63.60;102347.22;4932561;29;9888;-69
2022/10/12 10:43:47;;;;;;;;;11.00;9.50;;;;;12.24;63.25;102340.63;4932802;29;9896;-68
2022/10/12 10:46:15;;;;;;;;;8.75;7.50;;;;;12.25;62.81;102335.06;4932934;29;9958;-69
2022/10/12 10:49:07;;;;;;;;;10.00;10.00;;;;;12.29;62.04;102330.16;4932716;29;9965;-69
2022/10/12 10:51:45;;;;;;;;;14.50;13.00;;;;;12.36;62.41;102317.69;4936879;29;9956;-70
2022/10/12 10:54:22;;;;;;;;;16.50;10.75;;;;;12.44;62.64;102311.44;4937467;29;9891;-69
2022/10/12 10:56:55;;;;;;;;;10.50;10.50;;;;;12.46;62.17;102299.44;4937393;29;9933;-69
2022/10/12 10:59:39;;;;;;;;;11.25;9.75;;;;;12.51;61.79;102288.09;4936898;29;9962;-68
2022/10/12 11:02:16;;;;;;;;;11.50;9.00;;;;;12.51;62.07;102294.34;4937023;29;9898;-69
2022/10/12 11:04:50;;;;;;;;;11.00;11.00;;;;;12.49;61.57;102296.38;4936324;29;9872;-69
2022/10/12 11:07:30;;;;;;;;;10.25;8.00;;;;;12.52;61.08;102290.66;4936585;29;9982;-69
2022/10/12 11:10:01;;;;;;;;;9.50;8.75;;;;;12.56;61.24;102292.00;4936213;29;9925;-69
2022/10/12 11:12:32;;;;;;;;;11.25;5.50;;;;;12.61;60.14;102283.38;4936166;29;9788;-68
2022/10/12 11:15:19;;;;;;;;;8.00;8.00;;;;;12.61;60.46;102277.97;4936142;29;9928;-69
2022/10/12 11:17:49;;;;;;;;;8.75;8.75;;;;;12.55;60.41;102268.69;4936095;29;10329;-69
2022/10/12 11:20:38;;;;;;;;;6.00;6.00;;;;;12.54;59.98;102263.47;4936108;29;10428;-68
2022/10/12 11:23:27;;;;;;;;;7.75;6.00;;;;;12.56;59.63;102266.84;4936031;29;9797;-69
2022/10/12 11:26:19;;;;;;;;;6.00;6.00;;;;;12.60;59.11;102277.13;4935905;29;9709;-68
2022/10/12 11:28:46;;;;;;;;;5.50;5.50;;;;;12.57;58.96;102271.22;4936051;29;9888;-68
2022/10/12 11:31:38;;;;;;;;;2.00;2.00;;;;;12.55;58.82;102279.47;4935699;29;9763;-68
2022/10/12 11:34:12;;;;;;;;;4.00;4.00;;;;;12.54;59.03;102267.00;4935405;29;9653;-68
2022/10/12 11:36:43;;;;;;;;;5.50;4.00;;;;;12.57;59.27;102260.41;4935867;29;9672;-69
2022/10/12 11:39:37;;;;;;;;;4.00;3.75;;;;;12.58;59.14;102262.09;4935447;29;9643;-69
2022/10/12 11:42:10;;;;;;;;;6.25;5.00;;;;;12.58;59.35;102265.63;4935614;29;9720;-68
2022/10/12 11:44:49;;;;;;;;;6.00;5.75;;;;;12.58;59.49;102268.34;4935786;29;10003;-68